Yorkville, Illinois
Current Conditions -  °F | °C
As of 12:52 AM on Saturday 29 Nov 2014 (Local Time) from KARR Reporting Station
Haze Haze  
Wind Chill: 22°   Ceiling: Unl
Heat Index: 30°   Visibility: 5mi
Dew Point: 25°   Wind: 8mph
Humidity: 82%   Direction: 130°SE
Pressure: 29.84"   Gusts: NA
Location:  41.64°N, 88.45°W
Report Text: KARR 290652Z AUTO 13007KT 5SM HZ CLR M01/M04 A2984 RMK AO2 SLP112 T10111039
Loading
Personal Weather Stations






























Interactive Weather Map New forecast layout! Learn more

10-Day Weather Forecast

Advertisements
Track Severe Weather on mobile